sensor_id;sensor_type;location;lat;lon;timestamp;pressure;altitude;pressure_sealevel;temperature;humidity
62926;BME280;55732;52.248;-0.844;2023-06-22T00:01:51;100932.37;;;18.23;73.77
62926;BME280;55732;52.248;-0.844;2023-06-22T00:04:16;100930.95;;;18.16;74.17
62926;BME280;55732;52.248;-0.844;2023-06-22T00:06:41;100939.31;;;18.17;74.30
62926;BME280;55732;52.248;-0.844;2023-06-22T00:09:07;100936.68;;;18.16;74.24
62926;BME280;55732;52.248;-0.844;2023-06-22T00:11:36;100930.31;;;18.14;74.49
62926;BME280;55732;52.248;-0.844;2023-06-22T00:14:01;100928.52;;;18.14;74.55
62926;BME280;55732;52.248;-0.844;2023-06-22T00:16:27;100928.27;;;18.10;74.55
62926;BME280;55732;52.248;-0.844;2023-06-22T00:18:52;100930.99;;;18.08;74.84
62926;BME280;55732;52.248;-0.844;2023-06-22T00:21:18;100932.29;;;18.07;74.78
62926;BME280;55732;52.248;-0.844;2023-06-22T00:23:45;100935.06;;;18.03;74.97
62926;BME280;55732;52.248;-0.844;2023-06-22T00:26:10;100936.38;;;18.00;74.96
62926;BME280;55732;52.248;-0.844;2023-06-22T00:28:36;100936.60;;;17.98;74.91
62926;BME280;55732;52.248;-0.844;2023-06-22T00:31:02;100945.03;;;17.96;75.00
62926;BME280;55732;52.248;-0.844;2023-06-22T00:33:27;100942.27;;;17.93;75.09
62926;BME280;55732;52.248;-0.844;2023-06-22T00:35:53;100941.42;;;17.91;75.05
62926;BME280;55732;52.248;-0.844;2023-06-22T00:38:19;100950.22;;;17.88;75.30
62926;BME280;55732;52.248;-0.844;2023-06-22T00:40:45;100950.98;;;17.86;75.48
62926;BME280;55732;52.248;-0.844;2023-06-22T00:43:14;100955.15;;;17.83;75.11
62926;BME280;55732;52.248;-0.844;2023-06-22T00:45:39;100952.73;;;17.81;75.34
62926;BME280;55732;52.248;-0.844;2023-06-22T00:48:05;100954.41;;;17.78;75.43
62926;BME280;55732;52.248;-0.844;2023-06-22T00:50:32;100957.52;;;17.74;75.57
62926;BME280;55732;52.248;-0.844;2023-06-22T00:53:06;100961.69;;;17.71;75.47
62926;BME280;55732;52.248;-0.844;2023-06-22T00:55:35;100961.61;;;17.68;75.52
62926;BME280;55732;52.248;-0.844;2023-06-22T00:58:03;100962.02;;;17.65;75.57
62926;BME280;55732;52.248;-0.844;2023-06-22T01:00:33;100964.02;;;17.63;75.58
62926;BME280;55732;52.248;-0.844;2023-06-22T01:02:58;100962.63;;;17.60;75.70
62926;BME280;55732;52.248;-0.844;2023-06-22T01:05:24;100961.98;;;17.58;75.70
62926;BME280;55732;52.248;-0.844;2023-06-22T01:13:35;100970.98;;;17.47;76.10
62926;BME280;55732;52.248;-0.844;2023-06-22T01:16:09;100976.81;;;17.41;76.40
62926;BME280;55732;52.248;-0.844;2023-06-22T01:18:40;100974.77;;;17.37;76.50
62926;BME280;55732;52.248;-0.844;2023-06-22T01:21:12;100977.16;;;17.34;76.68
62926;BME280;55732;52.248;-0.844;2023-06-22T01:26:40;100974.02;;;17.30;76.85
62926;BME280;55732;52.248;-0.844;2023-06-22T01:29:08;100973.34;;;17.29;77.38
62926;BME280;55732;52.248;-0.844;2023-06-22T01:31:38;100976.35;;;17.30;77.39
62926;BME280;55732;52.248;-0.844;2023-06-22T01:34:06;100976.33;;;17.31;77.64
62926;BME280;55732;52.248;-0.844;2023-06-22T01:36:33;100976.99;;;17.33;77.52
62926;BME280;55732;52.248;-0.844;2023-06-22T01:39:00;100974.78;;;17.36;77.63
62926;BME280;55732;52.248;-0.844;2023-06-22T01:41:28;100974.57;;;17.38;77.72
62926;BME280;55732;52.248;-0.844;2023-06-22T01:43:55;100974.52;;;17.40;77.64
62926;BME280;55732;52.248;-0.844;2023-06-22T01:46:22;100975.38;;;17.42;77.71
62926;BME280;55732;52.248;-0.844;2023-06-22T01:48:48;100975.35;;;17.43;77.91
62926;BME280;55732;52.248;-0.844;2023-06-22T01:51:14;100972.65;;;17.44;77.66
62926;BME280;55732;52.248;-0.844;2023-06-22T01:53:40;100972.71;;;17.41;77.62
62926;BME280;55732;52.248;-0.844;2023-06-22T01:56:06;100970.63;;;17.39;77.64
62926;BME280;55732;52.248;-0.844;2023-06-22T01:58:31;100972.44;;;17.37;77.67
62926;BME280;55732;52.248;-0.844;2023-06-22T02:03:37;100970.85;;;17.37;78.00
62926;BME280;55732;52.248;-0.844;2023-06-22T02:06:10;100970.66;;;17.37;78.13
62926;BME280;55732;52.248;-0.844;2023-06-22T02:08:41;100971.52;;;17.38;78.11
62926;BME280;55732;52.248;-0.844;2023-06-22T02:11:10;100971.31;;;17.40;78.23
62926;BME280;55732;52.248;-0.844;2023-06-22T02:13:38;100973.23;;;17.41;78.13
62926;BME280;55732;52.248;-0.844;2023-06-22T02:16:09;100975.35;;;17.43;78.10
62926;BME280;55732;52.248;-0.844;2023-06-22T02:18:35;100975.91;;;17.41;77.96
62926;BME280;55732;52.248;-0.844;2023-06-22T02:21:01;100976.34;;;17.38;78.11
62926;BME280;55732;52.248;-0.844;2023-06-22T02:23:27;100970.16;;;17.36;78.14
62926;BME280;55732;52.248;-0.844;2023-06-22T02:25:52;100969.70;;;17.32;78.25
62926;BME280;55732;52.248;-0.844;2023-06-22T02:28:17;100964.45;;;17.28;78.35
62926;BME280;55732;52.248;-0.844;2023-06-22T02:30:43;100961.48;;;17.26;78.63
62926;BME280;55732;52.248;-0.844;2023-06-22T02:33:08;100961.80;;;17.27;78.63
62926;BME280;55732;52.248;-0.844;2023-06-22T02:35:33;100968.61;;;17.25;78.44
62926;BME280;55732;52.248;-0.844;2023-06-22T02:38:01;100974.60;;;17.20;78.46
62926;BME280;55732;52.248;-0.844;2023-06-22T02:40:28;100975.92;;;17.17;78.64
62926;BME280;55732;52.248;-0.844;2023-06-22T02:42:54;100971.65;;;17.17;78.90
62926;BME280;55732;52.248;-0.844;2023-06-22T02:45:20;100970.94;;;17.17;78.99
62926;BME280;55732;52.248;-0.844;2023-06-22T02:47:45;100969.74;;;17.15;78.91
62926;BME280;55732;52.248;-0.844;2023-06-22T02:50:12;100972.48;;;17.11;78.66
62926;BME280;55732;52.248;-0.844;2023-06-22T02:52:38;100974.52;;;17.08;78.83
62926;BME280;55732;52.248;-0.844;2023-06-22T02:55:05;100970.85;;;17.05;78.69
62926;BME280;55732;52.248;-0.844;2023-06-22T02:57:30;100967.71;;;17.02;78.75
62926;BME280;55732;52.248;-0.844;2023-06-22T02:59:56;100964.24;;;16.98;79.05
62926;BME280;55732;52.248;-0.844;2023-06-22T03:02:21;100964.67;;;16.94;79.01
62926;BME280;55732;52.248;-0.844;2023-06-22T03:04:47;100969.86;;;16.93;79.09
62926;BME280;55732;52.248;-0.844;2023-06-22T03:07:13;100966.73;;;16.89;79.12
62926;BME280;55732;52.248;-0.844;2023-06-22T03:09:39;100967.52;;;16.87;79.22
62926;BME280;55732;52.248;-0.844;2023-06-22T03:12:04;100966.45;;;16.86;79.12
62926;BME280;55732;52.248;-0.844;2023-06-22T03:14:30;100966.85;;;16.85;78.99
62926;BME280;55732;52.248;-0.844;2023-06-22T03:16:55;100961.25;;;16.79;78.89
62926;BME280;55732;52.248;-0.844;2023-06-22T03:19:26;100962.83;;;16.72;79.19
62926;BME280;55732;52.248;-0.844;2023-06-22T03:21:53;100968.80;;;16.66;79.16
62926;BME280;55732;52.248;-0.844;2023-06-22T03:24:18;100971.22;;;16.61;79.38
62926;BME280;55732;52.248;-0.844;2023-06-22T03:26:44;100974.48;;;16.56;79.65
62926;BME280;55732;52.248;-0.844;2023-06-22T03:29:11;100978.79;;;16.54;79.73
62926;BME280;55732;52.248;-0.844;2023-06-22T03:31:36;100977.38;;;16.53;80.05
62926;BME280;55732;52.248;-0.844;2023-06-22T03:34:02;100972.02;;;16.55;79.88
62926;BME280;55732;52.248;-0.844;2023-06-22T03:36:27;100971.98;;;16.56;79.63
62926;BME280;55732;52.248;-0.844;2023-06-22T03:38:52;100972.53;;;16.56;79.45
62926;BME280;55732;52.248;-0.844;2023-06-22T03:41:18;100972.91;;;16.55;79.36
62926;BME280;55732;52.248;-0.844;2023-06-22T03:43:43;100972.61;;;16.52;79.20
62926;BME280;55732;52.248;-0.844;2023-06-22T03:46:09;100973.06;;;16.48;79.19
62926;BME280;55732;52.248;-0.844;2023-06-22T03:48:34;100969.07;;;16.42;79.28
62926;BME280;55732;52.248;-0.844;2023-06-22T03:51:00;100968.46;;;16.37;79.41
62926;BME280;55732;52.248;-0.844;2023-06-22T03:53:26;100967.43;;;16.36;79.49
62926;BME280;55732;52.248;-0.844;2023-06-22T03:55:52;100960.85;;;16.36;79.64
62926;BME280;55732;52.248;-0.844;2023-06-22T03:58:19;100964.76;;;16.36;79.70
62926;BME280;55732;52.248;-0.844;2023-06-22T04:00:52;100962.96;;;16.37;79.74
62926;BME280;55732;52.248;-0.844;2023-06-22T04:03:18;100956.86;;;16.40;79.84
62926;BME280;55732;52.248;-0.844;2023-06-22T04:05:47;100959.45;;;16.43;79.74
62926;BME280;55732;52.248;-0.844;2023-06-22T04:08:13;100958.00;;;16.45;79.48
62926;BME280;55732;52.248;-0.844;2023-06-22T04:10:39;100956.58;;;16.45;79.62
62926;BME280;55732;52.248;-0.844;2023-06-22T04:13:05;100956.21;;;16.46;79.83
62926;BME280;55732;52.248;-0.844;2023-06-22T04:15:30;100954.96;;;16.46;79.89
62926;BME280;55732;52.248;-0.844;2023-06-22T04:17:56;100953.90;;;16.45;79.66
62926;BME280;55732;52.248;-0.844;2023-06-22T04:20:22;100954.45;;;16.45;79.58
62926;BME280;55732;52.248;-0.844;2023-06-22T04:22:50;100950.58;;;16.43;79.43
62926;BME280;55732;52.248;-0.844;2023-06-22T04:25:16;100951.63;;;16.43;79.51
62926;BME280;55732;52.248;-0.844;2023-06-22T04:27:42;100952.45;;;16.48;79.56
62926;BME280;55732;52.248;-0.844;2023-06-22T04:30:08;100947.58;;;16.50;79.38
62926;BME280;55732;52.248;-0.844;2023-06-22T04:32:36;100954.36;;;16.59;79.35
62926;BME280;55732;52.248;-0.844;2023-06-22T04:35:03;100959.37;;;16.67;79.43
62926;BME280;55732;52.248;-0.844;2023-06-22T04:37:30;100961.50;;;16.93;79.19
62926;BME280;55732;52.248;-0.844;2023-06-22T04:39:56;100961.95;;;17.29;78.48
62926;BME280;55732;52.248;-0.844;2023-06-22T04:42:21;100957.69;;;17.52;77.91
62926;BME280;55732;52.248;-0.844;2023-06-22T04:44:46;100950.15;;;17.70;77.48
62926;BME280;55732;52.248;-0.844;2023-06-22T04:47:12;100952.64;;;17.90;77.04
62926;BME280;55732;52.248;-0.844;2023-06-22T04:49:37;100951.15;;;18.21;76.35
62926;BME280;55732;52.248;-0.844;2023-06-22T04:52:10;100955.63;;;18.40;75.50
62926;BME280;55732;52.248;-0.844;2023-06-22T04:54:37;100959.87;;;18.35;75.44
62926;BME280;55732;52.248;-0.844;2023-06-22T04:57:05;100962.94;;;18.27;75.35
62926;BME280;55732;52.248;-0.844;2023-06-22T04:59:35;100965.49;;;18.18;75.31
62926;BME280;55732;52.248;-0.844;2023-06-22T05:02:01;100963.00;;;18.11;75.59
62926;BME280;55732;52.248;-0.844;2023-06-22T05:04:28;100965.73;;;18.15;75.61
62926;BME280;55732;52.248;-0.844;2023-06-22T05:06:57;100970.67;;;18.30;75.09
62926;BME280;55732;52.248;-0.844;2023-06-22T05:09:22;100969.72;;;18.39;75.11
62926;BME280;55732;52.248;-0.844;2023-06-22T05:11:47;100974.70;;;18.47;74.97
62926;BME280;55732;52.248;-0.844;2023-06-22T05:14:13;100971.79;;;18.62;74.79
62926;BME280;55732;52.248;-0.844;2023-06-22T05:16:41;100969.06;;;18.83;74.37
62926;BME280;55732;52.248;-0.844;2023-06-22T05:19:07;100968.27;;;19.04;73.82
62926;BME280;55732;52.248;-0.844;2023-06-22T05:21:32;100967.50;;;19.23;73.89
62926;BME280;55732;52.248;-0.844;2023-06-22T05:23:58;100965.05;;;19.38;73.25
62926;BME280;55732;52.248;-0.844;2023-06-22T05:26:37;100965.05;;;19.50;73.31
62926;BME280;55732;52.248;-0.844;2023-06-22T05:29:03;100974.02;;;19.61;73.12
62926;BME280;55732;52.248;-0.844;2023-06-22T05:31:29;100977.18;;;19.68;72.70
62926;BME280;55732;52.248;-0.844;2023-06-22T05:33:55;100980.20;;;19.73;72.42
62926;BME280;55732;52.248;-0.844;2023-06-22T05:36:20;100981.70;;;19.77;72.36
62926;BME280;55732;52.248;-0.844;2023-06-22T05:38:47;100988.67;;;19.82;72.30
62926;BME280;55732;52.248;-0.844;2023-06-22T05:41:12;100989.20;;;19.93;72.26
62926;BME280;55732;52.248;-0.844;2023-06-22T05:43:39;100995.84;;;19.98;71.79
62926;BME280;55732;52.248;-0.844;2023-06-22T05:46:04;101002.01;;;20.11;71.61
62926;BME280;55732;52.248;-0.844;2023-06-22T05:48:30;100997.99;;;20.24;71.57
62926;BME280;55732;52.248;-0.844;2023-06-22T05:50:55;100998.34;;;20.29;71.17
62926;BME280;55732;52.248;-0.844;2023-06-22T05:53:21;100995.72;;;20.33;70.77
62926;BME280;55732;52.248;-0.844;2023-06-22T05:55:46;100994.48;;;20.39;70.94
62926;BME280;55732;52.248;-0.844;2023-06-22T05:58:12;100993.16;;;20.40;70.63
62926;BME280;55732;52.248;-0.844;2023-06-22T06:00:38;100993.52;;;20.50;70.48
62926;BME280;55732;52.248;-0.844;2023-06-22T06:03:04;100990.11;;;20.65;70.26
62926;BME280;55732;52.248;-0.844;2023-06-22T06:05:33;100991.03;;;20.89;69.93
62926;BME280;55732;52.248;-0.844;2023-06-22T06:08:04;100992.05;;;21.14;69.31
62926;BME280;55732;52.248;-0.844;2023-06-22T06:10:32;100993.40;;;21.71;68.41
62926;BME280;55732;52.248;-0.844;2023-06-22T06:12:57;100989.45;;;22.23;67.32
62926;BME280;55732;52.248;-0.844;2023-06-22T06:15:23;100988.02;;;22.40;66.57
62926;BME280;55732;52.248;-0.844;2023-06-22T06:17:50;100986.54;;;22.61;66.06
62926;BME280;55732;52.248;-0.844;2023-06-22T06:20:21;100984.70;;;22.82;65.63
62926;BME280;55732;52.248;-0.844;2023-06-22T06:22:47;100988.23;;;23.03;65.12
62926;BME280;55732;52.248;-0.844;2023-06-22T06:25:13;100985.05;;;23.13;64.32
62926;BME280;55732;52.248;-0.844;2023-06-22T06:27:51;100987.73;;;23.13;64.39
62926;BME280;55732;52.248;-0.844;2023-06-22T06:30:18;100985.61;;;23.09;63.93
62926;BME280;55732;52.248;-0.844;2023-06-22T06:32:44;100985.74;;;22.98;64.02
62926;BME280;55732;52.248;-0.844;2023-06-22T06:35:14;100986.64;;;22.87;64.06
62926;BME280;55732;52.248;-0.844;2023-06-22T06:37:42;100988.77;;;22.76;64.17
62926;BME280;55732;52.248;-0.844;2023-06-22T06:40:09;100987.28;;;22.68;64.14
62926;BME280;55732;52.248;-0.844;2023-06-22T06:42:38;100991.12;;;22.63;64.30
62926;BME280;55732;52.248;-0.844;2023-06-22T06:45:07;100989.49;;;22.59;64.28
62926;BME280;55732;52.248;-0.844;2023-06-22T06:47:33;100993.46;;;22.58;64.41
62926;BME280;55732;52.248;-0.844;2023-06-22T06:49:58;100992.78;;;22.57;64.27
62926;BME280;55732;52.248;-0.844;2023-06-22T06:52:24;100992.93;;;22.54;64.79
62926;BME280;55732;52.248;-0.844;2023-06-22T06:54:50;100995.20;;;22.48;64.71
62926;BME280;55732;52.248;-0.844;2023-06-22T06:57:20;100996.57;;;22.41;64.61
62926;BME280;55732;52.248;-0.844;2023-06-22T06:59:45;100996.60;;;22.32;64.72
62926;BME280;55732;52.248;-0.844;2023-06-22T07:02:11;100986.51;;;22.21;64.95
62926;BME280;55732;52.248;-0.844;2023-06-22T07:04:36;100984.91;;;22.12;65.19
62926;BME280;55732;52.248;-0.844;2023-06-22T07:07:02;100991.80;;;22.07;65.36
62926;BME280;55732;52.248;-0.844;2023-06-22T07:09:28;100994.91;;;22.05;65.53
62926;BME280;55732;52.248;-0.844;2023-06-22T07:11:53;100996.20;;;22.08;65.44
62926;BME280;55732;52.248;-0.844;2023-06-22T07:14:18;100998.48;;;22.13;65.55
62926;BME280;55732;52.248;-0.844;2023-06-22T07:16:44;101003.67;;;22.26;65.24
62926;BME280;55732;52.248;-0.844;2023-06-22T07:19:11;100999.20;;;22.39;64.87
62926;BME280;55732;52.248;-0.844;2023-06-22T07:21:37;100996.24;;;22.52;64.73
62926;BME280;55732;52.248;-0.844;2023-06-22T07:24:02;100992.74;;;22.70;64.23
62926;BME280;55732;52.248;-0.844;2023-06-22T07:26:28;100989.23;;;22.89;63.79
62926;BME280;55732;52.248;-0.844;2023-06-22T07:28:53;100984.83;;;23.14;63.48
62926;BME280;55732;52.248;-0.844;2023-06-22T07:31:18;100991.74;;;23.35;62.60
62926;BME280;55732;52.248;-0.844;2023-06-22T07:33:44;100986.05;;;23.71;61.72
62926;BME280;55732;52.248;-0.844;2023-06-22T07:36:09;100986.23;;;24.83;59.92
62926;BME280;55732;52.248;-0.844;2023-06-22T07:38:35;100983.15;;;25.48;58.47
62926;BME280;55732;52.248;-0.844;2023-06-22T07:41:00;100982.90;;;25.72;57.26
62926;BME280;55732;52.248;-0.844;2023-06-22T07:43:26;100983.15;;;25.61;56.38
62926;BME280;55732;52.248;-0.844;2023-06-22T07:45:51;100988.35;;;25.33;56.69
62926;BME280;55732;52.248;-0.844;2023-06-22T07:48:20;100989.63;;;25.26;57.28
62926;BME280;55732;52.248;-0.844;2023-06-22T07:50:46;100988.20;;;25.36;57.33
62926;BME280;55732;52.248;-0.844;2023-06-22T07:53:11;100990.45;;;25.63;56.96
62926;BME280;55732;52.248;-0.844;2023-06-22T07:55:37;100987.92;;;25.67;56.39
62926;BME280;55732;52.248;-0.844;2023-06-22T07:58:02;100985.53;;;25.67;56.23
62926;BME280;55732;52.248;-0.844;2023-06-22T08:00:27;100987.38;;;25.67;55.99
62926;BME280;55732;52.248;-0.844;2023-06-22T08:02:53;100987.31;;;26.26;55.01
62926;BME280;55732;52.248;-0.844;2023-06-22T08:05:18;100984.98;;;27.30;53.47
62926;BME280;55732;52.248;-0.844;2023-06-22T08:07:44;100982.71;;;27.60;52.62
62926;BME280;55732;52.248;-0.844;2023-06-22T08:10:12;100979.78;;;28.01;51.94
62926;BME280;55732;52.248;-0.844;2023-06-22T08:12:41;100980.73;;;28.48;50.48
62926;BME280;55732;52.248;-0.844;2023-06-22T08:15:07;100981.96;;;28.46;50.50
62926;BME280;55732;52.248;-0.844;2023-06-22T08:17:33;100981.33;;;28.62;50.14
62926;BME280;55732;52.248;-0.844;2023-06-22T08:19:58;100981.63;;;28.92;49.52
62926;BME280;55732;52.248;-0.844;2023-06-22T08:22:25;100979.23;;;29.17;49.06
62926;BME280;55732;52.248;-0.844;2023-06-22T08:24:51;100978.09;;;29.58;47.25
62926;BME280;55732;52.248;-0.844;2023-06-22T08:27:16;100976.09;;;30.01;46.95
62926;BME280;55732;52.248;-0.844;2023-06-22T08:29:43;100971.55;;;31.27;44.63
62926;BME280;55732;52.248;-0.844;2023-06-22T08:32:11;100973.35;;;32.96;42.24
62926;BME280;55732;52.248;-0.844;2023-06-22T08:34:36;100970.54;;;34.55;39.64
62926;BME280;55732;52.248;-0.844;2023-06-22T08:37:02;100974.77;;;35.96;38.06
62926;BME280;55732;52.248;-0.844;2023-06-22T08:39:32;100976.61;;;36.98;36.37
62926;BME280;55732;52.248;-0.844;2023-06-22T08:41:57;100974.73;;;37.43;34.55
62926;BME280;55732;52.248;-0.844;2023-06-22T08:44:22;100976.56;;;36.86;33.75
62926;BME280;55732;52.248;-0.844;2023-06-22T08:46:48;100969.96;;;36.07;35.15
62926;BME280;55732;52.248;-0.844;2023-06-22T08:49:13;100970.39;;;35.58;35.77
62926;BME280;55732;52.248;-0.844;2023-06-22T08:51:38;100968.42;;;35.72;35.16
62926;BME280;55732;52.248;-0.844;2023-06-22T08:54:04;100967.26;;;36.58;33.11
62926;BME280;55732;52.248;-0.844;2023-06-22T08:56:30;100968.67;;;37.32;32.35
62926;BME280;55732;52.248;-0.844;2023-06-22T08:58:55;100966.29;;;38.32;31.52
62926;BME280;55732;52.248;-0.844;2023-06-22T09:01:21;100964.68;;;39.56;30.53
62926;BME280;55732;52.248;-0.844;2023-06-22T09:03:47;100963.16;;;40.26;28.94
62926;BME280;55732;52.248;-0.844;2023-06-22T09:06:20;100963.13;;;40.55;28.22
62926;BME280;55732;52.248;-0.844;2023-06-22T09:08:46;100967.31;;;40.86;27.96
62926;BME280;55732;52.248;-0.844;2023-06-22T09:11:12;100968.62;;;41.36;27.52
62926;BME280;55732;52.248;-0.844;2023-06-22T09:13:37;100968.80;;;41.82;26.73
62926;BME280;55732;52.248;-0.844;2023-06-22T09:16:03;100969.04;;;42.26;26.22
62926;BME280;55732;52.248;-0.844;2023-06-22T09:18:28;100973.29;;;42.79;25.48
62926;BME280;55732;52.248;-0.844;2023-06-22T09:20:53;100975.31;;;42.74;25.61
62926;BME280;55732;52.248;-0.844;2023-06-22T09:23:19;100980.57;;;40.98;26.10
62926;BME280;55732;52.248;-0.844;2023-06-22T09:25:44;100983.53;;;39.55;26.81
62926;BME280;55732;52.248;-0.844;2023-06-22T09:28:09;100990.38;;;37.54;29.06
62926;BME280;55732;52.248;-0.844;2023-06-22T09:30:35;100983.68;;;35.98;30.83
62926;BME280;55732;52.248;-0.844;2023-06-22T09:33:00;100988.48;;;34.57;32.48
62926;BME280;55732;52.248;-0.844;2023-06-22T09:35:26;100988.02;;;33.45;34.00
62926;BME280;55732;52.248;-0.844;2023-06-22T09:37:51;100983.84;;;32.44;35.65
62926;BME280;55732;52.248;-0.844;2023-06-22T09:40:17;100989.55;;;31.55;36.33
62926;BME280;55732;52.248;-0.844;2023-06-22T09:42:42;100986.38;;;32.41;35.68
62926;BME280;55732;52.248;-0.844;2023-06-22T09:45:08;100986.77;;;33.22;35.25
62926;BME280;55732;52.248;-0.844;2023-06-22T09:47:33;100990.18;;;32.20;35.78
62926;BME280;55732;52.248;-0.844;2023-06-22T09:49:59;100993.91;;;31.19;36.44
62926;BME280;55732;52.248;-0.844;2023-06-22T09:52:25;100990.05;;;30.46;37.74
62926;BME280;55732;52.248;-0.844;2023-06-22T09:54:50;100991.06;;;30.26;38.52
62926;BME280;55732;52.248;-0.844;2023-06-22T09:57:16;100994.99;;;29.75;39.62
62926;BME280;55732;52.248;-0.844;2023-06-22T09:59:41;101002.41;;;29.23;40.48
62926;BME280;55732;52.248;-0.844;2023-06-22T10:02:07;101000.05;;;28.75;41.13
62926;BME280;55732;52.248;-0.844;2023-06-22T10:04:33;101000.30;;;28.24;42.36
62926;BME280;55732;52.248;-0.844;2023-06-22T10:06:59;101000.14;;;27.75;43.31
62926;BME280;55732;52.248;-0.844;2023-06-22T10:09:24;101000.46;;;27.34;44.09
62926;BME280;55732;52.248;-0.844;2023-06-22T10:11:50;100999.04;;;26.97;44.84
62926;BME280;55732;52.248;-0.844;2023-06-22T10:14:15;101001.99;;;26.73;44.98
62926;BME280;55732;52.248;-0.844;2023-06-22T10:16:41;100998.83;;;26.57;45.99
62926;BME280;55732;52.248;-0.844;2023-06-22T10:19:07;100997.75;;;26.45;46.20
62926;BME280;55732;52.248;-0.844;2023-06-22T10:21:32;100999.61;;;26.38;46.52
62926;BME280;55732;52.248;-0.844;2023-06-22T10:23:58;101002.73;;;26.34;46.71
62926;BME280;55732;52.248;-0.844;2023-06-22T10:26:26;101001.08;;;26.32;46.44
62926;BME280;55732;52.248;-0.844;2023-06-22T10:28:54;101000.20;;;26.28;46.25
62926;BME280;55732;52.248;-0.844;2023-06-22T10:31:19;100997.89;;;26.28;46.23
62926;BME280;55732;52.248;-0.844;2023-06-22T10:33:44;100999.70;;;26.31;45.75
62926;BME280;55732;52.248;-0.844;2023-06-22T10:36:11;100997.08;;;26.38;46.41
62926;BME280;55732;52.248;-0.844;2023-06-22T10:38:36;100997.30;;;26.43;46.84
62926;BME280;55732;52.248;-0.844;2023-06-22T10:41:01;100999.39;;;26.44;46.98
62926;BME280;55732;52.248;-0.844;2023-06-22T10:43:27;101000.75;;;26.40;47.18
62926;BME280;55732;52.248;-0.844;2023-06-22T10:45:53;100994.88;;;26.41;47.72
62926;BME280;55732;52.248;-0.844;2023-06-22T10:48:18;100991.25;;;26.47;47.74
62926;BME280;55732;52.248;-0.844;2023-06-22T10:50:43;100989.44;;;26.71;47.53
62926;BME280;55732;52.248;-0.844;2023-06-22T10:53:09;100987.83;;;27.09;46.92
62926;BME280;55732;52.248;-0.844;2023-06-22T10:55:34;100984.89;;;27.49;45.86
62926;BME280;55732;52.248;-0.844;2023-06-22T10:57:59;100985.48;;;27.81;45.31
62926;BME280;55732;52.248;-0.844;2023-06-22T11:00:25;100987.44;;;28.11;43.86
62926;BME280;55732;52.248;-0.844;2023-06-22T11:02:51;100984.98;;;28.10;43.50
62926;BME280;55732;52.248;-0.844;2023-06-22T11:05:16;100987.64;;;28.05;43.30
62926;BME280;55732;52.248;-0.844;2023-06-22T11:07:42;100990.92;;;27.97;43.47
62926;BME280;55732;52.248;-0.844;2023-06-22T11:10:09;100993.41;;;27.87;43.75
62926;BME280;55732;52.248;-0.844;2023-06-22T11:12:34;100994.97;;;28.04;43.70
62926;BME280;55732;52.248;-0.844;2023-06-22T11:15:00;100989.45;;;28.29;43.50
62926;BME280;55732;52.248;-0.844;2023-06-22T11:17:26;100992.39;;;28.52;43.02
62926;BME280;55732;52.248;-0.844;2023-06-22T11:19:51;100990.64;;;28.64;42.52
62926;BME280;55732;52.248;-0.844;2023-06-22T11:22:16;100989.13;;;28.81;42.47
62926;BME280;55732;52.248;-0.844;2023-06-22T11:24:42;100987.39;;;29.00;42.02
62926;BME280;55732;52.248;-0.844;2023-06-22T11:27:07;100985.09;;;29.19;41.57
62926;BME280;55732;52.248;-0.844;2023-06-22T11:29:32;100992.02;;;29.28;41.14
62926;BME280;55732;52.248;-0.844;2023-06-22T11:31:58;100988.75;;;29.36;40.83
62926;BME280;55732;52.248;-0.844;2023-06-22T11:34:23;100989.78;;;29.45;40.16
62926;BME280;55732;52.248;-0.844;2023-06-22T11:36:48;100982.70;;;29.37;39.71
62926;BME280;55732;52.248;-0.844;2023-06-22T11:39:14;100980.64;;;29.28;39.87
62926;BME280;55732;52.248;-0.844;2023-06-22T11:41:40;100980.23;;;29.33;40.14
62926;BME280;55732;52.248;-0.844;2023-06-22T11:44:06;100981.02;;;29.50;40.38
62926;BME280;55732;52.248;-0.844;2023-06-22T11:46:32;100976.23;;;29.73;40.14
62926;BME280;55732;52.248;-0.844;2023-06-22T11:48:57;100975.42;;;29.86;38.81
62926;BME280;55732;52.248;-0.844;2023-06-22T11:51:23;100970.97;;;29.78;38.48
62926;BME280;55732;52.248;-0.844;2023-06-22T11:53:48;100973.09;;;29.37;39.45
62926;BME280;55732;52.248;-0.844;2023-06-22T11:56:13;100973.54;;;29.01;40.07
62926;BME280;55732;52.248;-0.844;2023-06-22T11:58:39;100967.14;;;28.71;40.29
62926;BME280;55732;52.248;-0.844;2023-06-22T12:01:04;100964.95;;;28.33;40.83
62926;BME280;55732;52.248;-0.844;2023-06-22T12:03:30;100961.55;;;28.11;41.54
62926;BME280;55732;52.248;-0.844;2023-06-22T12:05:55;100972.12;;;27.91;41.72
62926;BME280;55732;52.248;-0.844;2023-06-22T12:08:21;100972.89;;;27.77;41.22
62926;BME280;55732;52.248;-0.844;2023-06-22T12:10:46;100973.95;;;27.67;41.13
62926;BME280;55732;52.248;-0.844;2023-06-22T12:13:12;100970.38;;;27.58;42.53
62926;BME280;55732;52.248;-0.844;2023-06-22T12:15:37;100968.02;;;27.49;42.57
62926;BME280;55732;52.248;-0.844;2023-06-22T12:18:03;100971.11;;;27.35;42.90
62926;BME280;55732;52.248;-0.844;2023-06-22T12:20:28;100966.77;;;27.21;42.56
62926;BME280;55732;52.248;-0.844;2023-06-22T12:22:54;100964.48;;;27.15;43.27
62926;BME280;55732;52.248;-0.844;2023-06-22T12:25:22;100958.25;;;27.16;43.45
62926;BME280;55732;52.248;-0.844;2023-06-22T12:27:47;100958.12;;;27.18;42.96
62926;BME280;55732;52.248;-0.844;2023-06-22T12:30:13;100956.32;;;27.18;41.96
62926;BME280;55732;52.248;-0.844;2023-06-22T12:32:38;100954.43;;;27.08;42.49
62926;BME280;55732;52.248;-0.844;2023-06-22T12:35:04;100956.27;;;27.19;42.87
62926;BME280;55732;52.248;-0.844;2023-06-22T12:37:29;100952.09;;;27.61;42.61
62926;BME280;55732;52.248;-0.844;2023-06-22T12:39:56;100948.55;;;28.00;42.37
62926;BME280;55732;52.248;-0.844;2023-06-22T12:42:22;100947.74;;;28.43;42.03
62926;BME280;55732;52.248;-0.844;2023-06-22T12:44:47;100947.48;;;28.85;41.13
62926;BME280;55732;52.248;-0.844;2023-06-22T12:47:12;100942.28;;;29.19;40.68